Kullen, Sweden

3:45 AM CEST on April 22, 2015 (GMT +0200)
THE SUMMIT MTB | | Change Station
CLOSE
Current Station
Personal Weather Station
Location: Strandbaden, Skne ln
Elevation: 33 ft
Nearby Weather Stations

Elev 33 ft 56.22 °N, 12.54 °E | Updated 4 seconds ago

Scattered Clouds
Scattered Clouds
43.7 °F
Feels Like 44 °F
N
0.0
Wind Variable Wind from East
Gusts 0.0 mph

Today
High -- | Low -- °F
--% Chance of Precip.
Yesterday
High -- | Low -- °F
Precip. -- in
5:47 AM 8:31 PM
Waxing Crescent, 14% visible
Pressure 30.18 in
Visibility 6.2 miles
Clouds Scattered Clouds 900 ft
Windchill 44 °F
Dew Point 43 °F
Humidity 97%
Rainfall 0.00 in
Snow Depth Not available.
UV 0 out of 12
Pollen Not available.
Air Quality Not available.
Flu Activity Not available.
METAR ESTA 220120Z AUTO 14003KT 9999 SCT009/// 03/02 Q1022

More Conditions Fewer Conditions

Pressure 30.18 in
Visibility 6.2 miles
Clouds Scattered Clouds 900 ft
Windchill 44 °F
Dew Point 43 °F
Humidity 97%
Rainfall 0.00 in
Snow Depth Not available.
UV 0 out of 12
Pollen Not available.
Air Quality Not available.
Flu Activity Not available.
METAR ESTA 220120Z AUTO 14003KT 9999 SCT009/// 03/02 Q1022

More Conditions Fewer Conditions

10-Day Weather Forecast

Almanac

Astronomy

Apr. 22, 2015 Rise Set
Actual Time
Civil Twilight
Nautical Twilight
Astronomical Twilight
Moon
Length of Visible Light
Length of Day
Tomorrow will be .
, % of the Moon is Illuminated

Today's Extremes

Country Highs Country Lows

Community

WunderPhotos

Upload Photos

1,815,623 photos uploaded!

WunderBlogs® & News

Nearby

Air Quality

  Air Quality AQ Index Pollutant
Not available.

Snow Depth

Station Depth Elevation

Earthquake Activity

City Distance Mag. Time & Date
Minimum magnitude displayed is 2.5.

Coastal Water Temperatures

Place Temperature

Stations

Nearby Weather Stations

Station Location Temp. Windchill Dew Point Humidity Wind Precip. Elev Updated Type